Time;durP1;ratioP1;P1;durP2;ratioP2;P2;SDS_P1;SDS_P2;PMS_P1;PMS_P2;Temp;Humidity;BMP_temperature;BMP_pressure;BME280_temperature;BME280_humidity;BME280_pressure;Samples;Min_cycle;Max_cycle;Signal;HPM_P1;HPM_P2
2022/06/24 00:01:12;;;;;;;14.48;10.18;;;;;;;20.13;67.20;101057.59;5019265;28;20509;-87
2022/06/24 00:03:37;;;;;;;13.57;9.75;;;;;;;20.08;66.81;101051.91;5035728;28;20059;-87
2022/06/24 00:06:11;;;;;;;14.48;9.77;;;;;;;19.94;66.94;101053.84;5035687;28;20064;-87
2022/06/24 00:08:49;;;;;;;13.75;10.30;;;;;;;19.90;67.75;101062.94;5019450;28;20086;-87
2022/06/24 00:11:15;;;;;;;13.68;9.77;;;;;;;19.86;67.62;101063.31;5036163;28;20086;-88
2022/06/24 00:13:40;;;;;;;14.40;9.88;;;;;;;19.80;67.60;101062.03;5019115;28;20021;-88
2022/06/24 00:16:06;;;;;;;18.05;10.38;;;;;;;19.81;67.81;101062.84;5019000;28;20115;-87
2022/06/24 00:18:31;;;;;;;13.38;9.85;;;;;;;19.84;68.24;101070.47;5051863;28;20460;-89
2022/06/24 00:20:56;;;;;;;16.10;10.63;;;;;;;19.80;68.09;101061.19;5052156;28;20474;-88
2022/06/24 00:23:22;;;;;;;14.90;10.80;;;;;;;19.88;68.24;101064.88;5051687;28;20040;-88
2022/06/24 00:25:49;;;;;;;14.15;10.05;;;;;;;19.82;68.26;101057.47;5051163;28;20028;-87
2022/06/24 00:28:15;;;;;;;15.65;10.38;;;;;;;19.84;67.88;101062.59;5019226;28;20025;-88
2022/06/24 00:30:42;;;;;;;16.05;10.65;;;;;;;19.80;67.88;101050.69;5035240;28;20053;-88
2022/06/24 00:33:19;;;;;;;16.17;11.02;;;;;;;19.86;67.97;101060.69;5051962;28;20479;-88
2022/06/24 00:35:49;;;;;;;15.00;10.52;;;;;;;19.83;68.07;101066.19;5035688;28;20035;-87
2022/06/24 00:38:23;;;;;;;14.70;10.43;;;;;;;19.88;67.80;101058.78;5034843;28;20029;-87
2022/06/24 00:40:56;;;;;;;15.20;10.70;;;;;;;19.87;67.50;101047.44;5053056;28;20029;-87
2022/06/24 00:43:25;;;;;;;14.73;10.10;;;;;;;19.88;67.39;101053.53;5035869;28;20025;-87
2022/06/24 00:45:51;;;;;;;15.98;10.25;;;;;;;19.92;67.86;101054.94;5035299;28;20025;-88
2022/06/24 00:48:17;;;;;;;14.77;10.57;;;;;;;19.88;67.55;101049.13;5051642;28;20032;-89
2022/06/24 00:50:45;;;;;;;15.40;11.15;;;;;;;19.87;67.89;101049.25;5034916;28;20048;-88
2022/06/24 00:53:10;;;;;;;15.73;11.43;;;;;;;19.79;67.57;101022.78;5018126;28;20033;-87
2022/06/24 00:55:36;;;;;;;13.05;10.52;;;;;;;19.90;67.65;101046.34;5035208;28;20107;-88
2022/06/24 00:58:02;;;;;;;16.70;10.48;;;;;;;19.87;67.46;101046.63;5051495;28;20059;-87
2022/06/24 01:00:30;;;;;;;14.73;10.20;;;;;;;19.81;67.08;101042.69;5034813;28;20021;-87
2022/06/24 01:02:59;;;;;;;13.30;11.00;;;;;;;19.59;67.76;101017.34;5051280;28;20038;-88
2022/06/24 01:05:24;;;;;;;11.93;9.73;;;;;;;19.72;67.72;101039.00;5051073;28;20490;-87
2022/06/24 01:07:50;;;;;;;14.35;10.23;;;;;;;19.61;67.77;101031.16;5034309;28;20025;-88
2022/06/24 01:10:15;;;;;;;12.65;10.20;;;;;;;19.53;68.28;101033.53;5034866;28;20037;-87
2022/06/24 01:12:41;;;;;;;13.90;10.15;;;;;;;19.38;68.23;101011.16;5034409;28;20052;-87
2022/06/24 01:15:06;;;;;;;14.95;11.35;;;;;;;19.48;68.20;101022.59;5050981;28;20067;-88
2022/06/24 01:17:32;;;;;;;16.35;11.15;;;;;;;19.41;68.45;101019.63;5034318;28;20150;-87
2022/06/24 01:19:58;;;;;;;16.60;10.80;;;;;;;19.40;68.43;101023.19;5034416;28;20072;-87
2022/06/24 01:22:24;;;;;;;16.90;11.85;;;;;;;19.23;68.80;100996.63;5034013;28;20075;-87
2022/06/24 01:24:49;;;;;;;16.52;11.15;;;;;;;19.43;68.78;101027.34;5051782;28;20037;-88
2022/06/24 01:27:15;;;;;;;15.95;11.27;;;;;;;19.41;68.87;101018.78;5017673;28;20461;-87
2022/06/24 01:29:40;;;;;;;17.38;11.73;;;;;;;19.33;68.39;101002.81;5033992;28;20059;-87
2022/06/24 01:32:06;;;;;;;19.40;11.68;;;;;;;19.44;68.73;101029.84;5034107;28;20037;-87
2022/06/24 01:34:32;;;;;;;18.30;10.85;;;;;;;19.44;68.79;101021.97;5034276;28;20522;-87
2022/06/24 01:36:57;;;;;;;22.60;14.73;;;;;;;19.42;68.74;101016.03;5016286;28;20125;-88
2022/06/24 01:39:23;;;;;;;22.58;13.90;;;;;;;19.40;68.95;101011.88;5033824;28;20075;-88
2022/06/24 01:41:49;;;;;;;21.80;12.23;;;;;;;19.46;68.64;101022.69;5017236;28;20083;-88
2022/06/24 01:44:15;;;;;;;16.95;12.50;;;;;;;19.31;69.18;101013.44;5017413;28;20486;-88
2022/06/24 01:46:40;;;;;;;20.67;12.10;;;;;;;19.43;68.83;101011.63;5033828;28;20039;-87
2022/06/24 01:49:07;;;;;;;17.17;10.95;;;;;;;19.35;68.61;100995.66;5017311;28;20067;-87
2022/06/24 01:51:33;;;;;;;17.55;11.20;;;;;;;19.44;68.84;101008.03;5033955;28;20140;-88
2022/06/24 01:53:58;;;;;;;18.30;12.10;;;;;;;19.42;68.73;101000.28;5033851;28;20533;-87
2022/06/24 01:56:24;;;;;;;15.77;10.10;;;;;;;19.51;68.63;101019.72;5034006;28;20028;-88
2022/06/24 01:58:49;;;;;;;16.70;10.50;;;;;;;19.39;68.88;101007.59;5033574;28;20481;-87
2022/06/24 02:01:15;;;;;;;17.13;10.68;;;;;;;19.45;68.61;101015.78;5033511;28;20033;-87
2022/06/24 02:03:40;;;;;;;15.38;10.38;;;;;;;19.41;68.76;101013.53;5050283;28;20064;-87
2022/06/24 02:06:08;;;;;;;15.85;11.00;;;;;;;19.32;69.12;101016.88;5049965;28;20029;-87
2022/06/24 02:08:33;;;;;;;14.05;10.18;;;;;;;19.32;69.29;101015.09;5017070;28;20414;-87
2022/06/24 02:13:44;;;;;;;15.43;10.95;;;;;;;19.19;69.79;101020.50;5035806;28;20110;-87
2022/06/24 02:16:09;;;;;;;13.98;10.48;;;;;;;19.18;69.65;101018.81;5049722;28;20108;-87
2022/06/24 02:18:35;;;;;;;15.98;10.57;;;;;;;19.19;69.90;101025.72;5016889;28;20501;-87
2022/06/24 02:21:01;;;;;;;18.15;11.13;;;;;;;19.20;69.71;101014.28;5016549;28;20111;-87
2022/06/24 02:23:26;;;;;;;19.17;15.27;;;;;;;19.16;69.89;101006.75;5049500;28;20414;-88
2022/06/24 02:25:53;;;;;;;17.92;12.70;;;;;;;19.13;69.64;101010.47;5016789;28;20040;-86
2022/06/24 02:28:18;;;;;;;16.55;12.07;;;;;;;19.11;70.01;101022.03;5066405;28;20567;-88
2022/06/24 02:30:45;;;;;;;15.02;12.25;;;;;;;19.04;70.46;101026.09;5033015;28;20045;-89
2022/06/24 02:33:10;;;;;;;15.07;11.48;;;;;;;19.03;70.29;101025.25;5066338;28;20107;-88
2022/06/24 02:35:36;;;;;;;18.77;12.40;;;;;;;19.01;70.51;101029.78;5016203;28;20046;-86
2022/06/24 02:38:02;;;;;;;19.45;15.43;;;;;;;18.93;70.88;101016.44;5016797;28;20017;-87
2022/06/24 02:40:46;;;;;;;21.98;16.73;;;;;;;18.94;70.46;101025.97;5049994;28;20032;-89
2022/06/24 02:43:18;;;;;;;18.52;13.40;;;;;;;18.90;70.74;101014.06;5035733;28;20405;-87
2022/06/24 02:45:48;;;;;;;17.83;14.57;;;;;;;18.82;70.50;101003.34;5033329;28;20056;-87
2022/06/24 02:48:15;;;;;;;17.35;12.43;;;;;;;18.92;70.51;101017.41;5048903;28;20041;-87
2022/06/24 02:50:42;;;;;;;12.43;11.13;;;;;;;18.70;70.88;100999.03;5016554;28;20033;-88
2022/06/24 02:53:07;;;;;;;18.77;11.82;;;;;;;18.79;70.83;101021.94;5033102;28;20037;-89
2022/06/24 02:55:33;;;;;;;15.88;11.45;;;;;;;18.71;71.03;101013.81;5016441;28;20124;-87
2022/06/24 02:57:58;;;;;;;16.58;11.77;;;;;;;18.77;70.80;101021.19;5033132;28;20446;-88
2022/06/24 03:00:24;;;;;;;18.15;12.50;;;;;;;18.65;70.95;101012.50;5032865;28;20029;-89
2022/06/24 03:02:49;;;;;;;17.27;11.48;;;;;;;18.83;70.99;101023.34;5032554;28;20068;-87
2022/06/24 03:05:15;;;;;;;16.73;11.70;;;;;;;18.85;70.92;101034.53;5032811;28;20522;-88
2022/06/24 03:07:40;;;;;;;17.00;11.82;;;;;;;18.86;71.08;101038.81;5032780;28;20067;-87
2022/06/24 03:10:07;;;;;;;18.10;11.93;;;;;;;18.87;70.62;101032.63;5016091;28;20029;-87
2022/06/24 03:12:32;;;;;;;18.92;11.32;;;;;;;18.93;70.58;101032.16;5065943;28;20033;-88
2022/06/24 03:14:58;;;;;;;18.17;12.25;;;;;;;18.94;70.44;101043.50;5032782;28;20087;-87
2022/06/24 03:17:23;;;;;;;16.23;11.95;;;;;;;18.90;70.53;101050.75;5015970;28;20029;-88
2022/06/24 03:19:49;;;;;;;17.92;12.32;;;;;;;18.80;70.78;101028.84;5049267;28;20548;-89
2022/06/24 03:22:14;;;;;;;18.40;12.68;;;;;;;18.82;70.60;101037.41;5032780;28;20033;-88
2022/06/24 03:24:40;;;;;;;15.95;11.60;;;;;;;18.95;70.62;101053.03;5016138;28;20033;-88
2022/06/24 03:27:06;;;;;;;20.42;12.02;;;;;;;18.99;70.76;101046.59;5032587;28;20083;-88
2022/06/24 03:29:31;;;;;;;17.90;12.02;;;;;;;18.91;69.82;101042.78;5049425;28;20045;-88
2022/06/24 03:31:57;;;;;;;36.92;12.45;;;;;;;18.91;70.59;101032.28;5032488;28;20061;-88
2022/06/24 03:34:22;;;;;;;41.53;13.32;;;;;;;19.04;70.05;101052.31;5016318;28;20485;-87
2022/06/24 03:36:49;;;;;;;40.95;13.55;;;;;;;19.05;70.18;101067.09;5032413;28;20531;-89
2022/06/24 03:39:14;;;;;;;18.77;12.52;;;;;;;19.03;70.22;101061.97;5032903;28;20029;-87
2022/06/24 03:41:40;;;;;;;20.63;12.77;;;;;;;18.90;70.12;101061.25;5016058;28;20021;-89
2022/06/24 03:44:05;;;;;;;22.63;13.30;;;;;;;18.93;70.25;101045.28;5033062;28;20036;-89
2022/06/24 03:46:31;;;;;;;16.50;12.55;;;;;;;19.01;70.47;101066.50;5032188;28;20486;-88
2022/06/24 03:48:56;;;;;;;19.90;13.27;;;;;;;18.91;70.62;101066.38;5050224;28;20072;-88
2022/06/24 03:51:22;;;;;;;15.63;12.48;;;;;;;18.86;70.65;101044.06;5032516;28;20033;-88
2022/06/24 03:53:47;;;;;;;17.27;13.10;;;;;;;18.96;70.44;101058.13;5024569;28;20147;-87
2022/06/24 03:56:13;;;;;;;19.85;13.38;;;;;;;18.96;70.41;101058.13;5026869;28;20601;-86
2022/06/24 03:58:38;;;;;;;18.88;12.98;;;;;;;19.19;70.29;101074.72;5012325;28;20041;-86
2022/06/24 04:01:04;;;;;;;17.38;13.10;;;;;;;19.27;69.45;101077.59;5030389;28;20021;-86
2022/06/24 04:03:29;;;;;;;19.20;13.25;;;;;;;19.33;69.03;101063.16;5015266;28;20088;-85
2022/06/24 04:05:55;;;;;;;23.67;13.90;;;;;;;19.42;69.00;101065.88;4999404;28;20080;-83
2022/06/24 04:08:20;;;;;;;19.92;13.45;;;;;;;19.43;69.26;101061.47;5015693;28;20032;-85
2022/06/24 04:10:46;;;;;;;18.90;13.65;;;;;;;19.58;68.52;101073.41;4999511;28;20029;-86
2022/06/24 04:13:11;;;;;;;15.88;12.85;;;;;;;19.62;68.75;101069.56;5015256;28;20033;-85
2022/06/24 04:15:44;;;;;;;19.77;13.85;;;;;;;19.57;68.49;101063.88;5015070;28;20030;-86
2022/06/24 04:18:10;;;;;;;22.90;14.10;;;;;;;19.79;68.20;101072.66;5025077;28;20029;-85
2022/06/24 04:20:35;;;;;;;23.48;13.82;;;;;;;19.88;68.01;101080.63;5047140;28;20040;-90
2022/06/24 04:23:01;;;;;;;23.20;14.23;;;;;;;19.85;67.83;101069.50;5048489;28;20040;-90
2022/06/24 04:25:26;;;;;;;18.25;14.02;;;;;;;19.94;67.91;101074.84;5050349;28;20503;-91
2022/06/24 04:27:52;;;;;;;20.88;14.27;;;;;;;20.01;67.50;101075.19;5051106;28;20409;-90
2022/06/24 04:30:17;;;;;;;21.15;15.20;;;;;;;20.24;66.66;101066.25;5050894;28;20107;-88
2022/06/24 04:32:43;;;;;;;20.30;13.88;;;;;;;20.37;66.11;101071.34;5034845;28;20497;-91
2022/06/24 04:35:09;;;;;;;21.42;14.93;;;;;;;20.29;66.41;101074.59;5051258;28;20064;-87
2022/06/24 04:37:38;;;;;;;21.02;14.60;;;;;;;20.38;66.52;101080.06;5054122;28;20501;-89
2022/06/24 04:40:05;;;;;;;18.38;14.27;;;;;;;20.46;66.45;101090.81;5035228;28;20486;-91
2022/06/24 04:42:31;;;;;;;19.83;15.05;;;;;;;20.39;66.43;101082.56;5033381;28;20099;-91
2022/06/24 04:44:56;;;;;;;19.52;15.35;;;;;;;20.43;66.93;101086.63;5035344;28;20045;-89
2022/06/24 04:47:22;;;;;;;20.27;15.32;;;;;;;20.50;66.65;101079.91;5034871;28;20036;-89
2022/06/24 04:49:48;;;;;;;21.95;16.05;;;;;;;20.47;66.55;101076.72;5051575;28;20033;-90
2022/06/24 04:52:15;;;;;;;23.63;16.85;;;;;;;20.60;66.55;101098.38;5051604;28;20040;-92
2022/06/24 04:54:41;;;;;;;24.08;17.05;;;;;;;20.62;66.42;101093.81;5026241;28;20413;-89
2022/06/24 04:57:07;;;;;;;30.90;18.85;;;;;;;20.78;66.43;101094.19;5033132;28;20079;-92
2022/06/24 04:59:33;;;;;;;23.52;17.50;;;;;;;21.18;65.40;101088.16;5045713;28;20431;-91
2022/06/24 05:01:58;;;;;;;30.00;17.15;;;;;;;21.19;64.65;101074.03;5034282;28;20116;-91
2022/06/24 05:04:24;;;;;;;24.00;16.88;;;;;;;21.44;64.81;101101.75;5049164;28;20483;-89
2022/06/24 05:06:49;;;;;;;20.10;15.82;;;;;;;21.50;64.52;101088.03;5033703;28;20040;-90
2022/06/24 05:09:18;;;;;;;23.90;16.63;;;;;;;21.45;64.15;101082.34;5049274;28;20195;-88
2022/06/24 05:11:45;;;;;;;20.15;15.95;;;;;;;21.47;64.59;101083.88;5032370;28;20071;-90
2022/06/24 05:14:11;;;;;;;21.67;16.08;;;;;;;21.90;63.63;101098.50;5045917;28;20083;-86
2022/06/24 05:16:37;;;;;;;21.73;15.50;;;;;;;22.08;62.17;101087.31;5031971;28;20037;-90
2022/06/24 05:19:02;;;;;;;18.98;14.80;;;;;;;22.29;62.03;101090.66;5051013;28;20028;-91
2022/06/24 05:21:28;;;;;;;22.38;14.70;;;;;;;22.21;61.47;101078.16;5049603;28;20029;-87
2022/06/24 05:23:54;;;;;;;17.45;14.38;;;;;;;22.23;61.48;101092.06;5049766;28;20029;-92
2022/06/24 05:26:20;;;;;;;18.58;14.75;;;;;;;22.30;61.42;101097.59;5015972;28;20059;-92
2022/06/24 05:28:45;;;;;;;20.27;14.38;;;;;;;22.28;61.18;101067.91;5034339;28;20033;-89
2022/06/24 05:31:11;;;;;;;18.08;14.25;;;;;;;22.55;61.02;101093.56;5049588;28;20449;-89
2022/06/24 05:33:36;;;;;;;19.83;13.40;;;;;;;22.81;59.66;101106.94;5051835;28;20032;-93
2022/06/24 05:36:02;;;;;;;17.92;13.43;;;;;;;23.01;59.46;101111.25;5050016;28;20075;-92
2022/06/24 05:38:27;;;;;;;18.33;13.75;;;;;;;23.00;58.92;101106.09;5034499;28;20100;-92
2022/06/24 05:40:53;;;;;;;19.75;12.95;;;;;;;23.03;58.62;101106.66;5051337;28;20486;-90
2022/06/24 05:43:18;;;;;;;18.65;13.23;;;;;;;22.92;59.25;101106.84;5016578;28;20029;-91
2022/06/24 05:45:47;;;;;;;19.38;13.60;;;;;;;23.06;59.12;101103.72;5035309;28;20039;-90
2022/06/24 05:48:16;;;;;;;16.98;13.20;;;;;;;23.10;58.87;101097.16;5033115;28;20033;-88
2022/06/24 05:50:41;;;;;;;21.45;13.57;;;;;;;23.36;58.19;101102.63;5033081;28;20513;-87
2022/06/24 05:55:52;;;;;;;21.90;13.23;;;;;;;23.45;57.36;101091.19;5039345;28;20040;-89
2022/06/24 05:58:18;;;;;;;13.63;11.77;;;;;;;23.50;56.38;101098.69;5033428;28;20049;-92
2022/06/24 06:00:43;;;;;;;18.73;14.32;;;;;;;23.63;55.77;101104.47;5036165;28;20021;-88
2022/06/24 06:03:09;;;;;;;18.83;12.98;;;;;;;23.86;55.57;101109.31;5017423;28;20052;-92
2022/06/24 06:05:34;;;;;;;23.35;13.95;;;;;;;23.87;54.15;101103.06;5050934;28;20553;-90
2022/06/24 06:08:00;;;;;;;19.08;12.10;;;;;;;23.81;53.23;101091.28;5015016;28;20029;-89
2022/06/24 06:10:25;;;;;;;14.32;11.48;;;;;;;23.93;54.88;101110.41;5053023;28;20036;-93
2022/06/24 06:12:51;;;;;;;18.92;12.38;;;;;;;24.00;54.24;101114.09;5051260;28;20075;-90
2022/06/24 06:15:16;;;;;;;13.90;10.23;;;;;;;24.03;51.96;101121.72;5044747;28;20064;-89
2022/06/24 06:17:42;;;;;;;15.35;11.00;;;;;;;23.94;53.25;101127.91;5045572;28;20033;-90
2022/06/24 06:20:08;;;;;;;14.98;10.85;;;;;;;24.07;53.09;101125.72;5033270;28;20025;-91
2022/06/24 06:22:33;;;;;;;14.90;10.90;;;;;;;24.09;53.25;101125.56;5033866;28;20116;-89
2022/06/24 06:24:59;;;;;;;14.48;10.52;;;;;;;24.12;52.28;101125.28;5031869;28;20047;-88
2022/06/24 06:27:24;;;;;;;15.10;11.70;;;;;;;24.12;52.93;101120.81;5048067;28;20095;-88
2022/06/24 06:29:50;;;;;;;13.73;11.10;;;;;;;24.16;53.34;101134.56;5029558;28;20087;-92
2022/06/24 06:32:16;;;;;;;13.82;10.52;;;;;;;24.24;52.26;101126.72;5046710;28;20061;-88
2022/06/24 06:34:41;;;;;;;20.85;12.02;;;;;;;24.36;52.54;101132.63;5049084;28;20434;-88
2022/06/24 06:37:07;;;;;;;15.57;11.35;;;;;;;24.45;52.55;101115.84;5046367;28;20044;-84
2022/06/24 06:39:32;;;;;;;13.82;10.25;;;;;;;24.49;51.18;101115.41;5048507;28;20025;-91
2022/06/24 06:41:58;;;;;;;14.52;12.32;;;;;;;24.53;51.03;101107.97;5030098;28;20029;-86
2022/06/24 06:44:23;;;;;;;14.18;10.88;;;;;;;24.75;49.71;101122.50;5048618;28;20032;-86
2022/06/24 06:46:49;;;;;;;12.40;10.63;;;;;;;24.87;50.03;101127.38;5027758;28;20083;-86
2022/06/24 06:49:14;;;;;;;14.82;11.15;;;;;;;24.94;49.01;101116.19;5031178;28;20052;-88
2022/06/24 06:51:40;;;;;;;11.75;10.45;;;;;;;25.00;49.92;101120.88;5048864;28;20091;-87
2022/06/24 06:54:06;;;;;;;12.07;10.27;;;;;;;25.08;48.17;101128.88;5009373;28;20111;-87
2022/06/24 06:56:31;;;;;;;12.32;9.88;;;;;;;25.13;48.56;101126.59;5032388;28;20043;-89
2022/06/24 06:58:57;;;;;;;13.43;9.68;;;;;;;25.24;47.65;101133.41;5036781;28;20045;-89
2022/06/24 07:01:22;;;;;;;13.82;10.90;;;;;;;25.20;47.27;101132.91;5029373;28;20041;-90
2022/06/24 07:03:48;;;;;;;11.85;10.18;;;;;;;25.10;46.92;101121.63;5051934;28;20485;-92
2022/06/24 07:06:13;;;;;;;18.63;12.80;;;;;;;25.09;47.07;101098.78;5049643;28;20029;-85
2022/06/24 07:08:39;;;;;;;21.33;10.63;;;;;;;25.31;48.54;101105.31;5055579;28;20040;-91
2022/06/24 07:11:04;;;;;;;15.20;9.90;;;;;;;25.42;47.13;101121.75;5048559;28;20108;-88
2022/06/24 07:13:30;;;;;;;10.63;9.00;;;;;;;25.54;46.21;101119.63;5031617;28;20032;-89
2022/06/24 07:15:55;;;;;;;16.00;11.68;;;;;;;25.64;47.47;101115.03;5028278;28;20049;-87
2022/06/24 07:18:21;;;;;;;15.60;11.30;;;;;;;25.65;45.77;101095.50;5029346;28;20030;-89
2022/06/24 07:20:46;;;;;;;16.52;9.80;;;;;;;25.64;47.01;101095.66;5038939;28;20033;-90
2022/06/24 07:23:12;;;;;;;12.68;9.52;;;;;;;25.88;44.88;101109.03;5038401;28;20516;-92
2022/06/24 07:25:37;;;;;;;14.88;9.27;;;;;;;25.94;43.97;101111.00;5050504;28;20032;-87
2022/06/24 07:28:04;;;;;;;14.05;9.13;;;;;;;25.93;44.72;101109.34;5048368;28;20512;-93
2022/06/24 07:30:30;;;;;;;13.45;8.68;;;;;;;26.02;42.71;101100.41;5031390;28;20049;-85
2022/06/24 07:32:55;;;;;;;16.90;9.82;;;;;;;25.95;43.29;101109.19;5031902;28;20029;-92
2022/06/24 07:35:21;;;;;;;17.48;10.05;;;;;;;25.96;43.48;101121.47;5036441;28;20083;-85
2022/06/24 07:37:46;;;;;;;15.05;8.35;;;;;;;26.11;42.90;101106.56;5032179;28;20418;-86
2022/06/24 07:40:12;;;;;;;13.55;8.25;;;;;;;26.31;43.51;101115.00;5053281;28;20033;-94
2022/06/24 07:42:37;;;;;;;9.98;8.50;;;;;;;26.41;44.55;101112.22;5035535;28;20037;-85
2022/06/24 07:45:03;;;;;;;12.55;8.75;;;;;;;26.54;42.07;101102.75;5049383;28;20021;-89
2022/06/24 07:47:29;;;;;;;14.13;8.13;;;;;;;26.74;43.10;101107.72;5051145;28;20029;-92
2022/06/24 07:49:54;;;;;;;12.23;8.52;;;;;;;26.81;42.38;101101.56;5027900;28;20064;-89
2022/06/24 07:52:20;;;;;;;11.18;7.65;;;;;;;26.83;41.95;101110.19;5032058;28;20038;-87
2022/06/24 07:54:45;;;;;;;21.48;15.88;;;;;;;26.83;42.60;101104.03;5047831;28;20104;-93
2022/06/24 07:57:11;;;;;;;61.65;50.88;;;;;;;26.81;41.75;101090.13;5036707;28;20037;-86
2022/06/24 07:59:37;;;;;;;15.70;11.05;;;;;;;26.93;42.02;101093.22;5038652;28;20067;-89
2022/06/24 08:02:04;;;;;;;17.63;11.80;;;;;;;27.07;42.68;101108.50;5034441;28;20545;-92
2022/06/24 08:04:30;;;;;;;20.35;16.55;;;;;;;27.20;41.56;101102.66;5036274;28;20098;-92
2022/06/24 08:06:56;;;;;;;20.17;16.02;;;;;;;27.37;41.28;101105.06;5018154;28;20137;-91
2022/06/24 08:09:25;;;;;;;15.75;10.68;;;;;;;27.38;40.32;101089.97;5035873;28;20051;-91
2022/06/24 08:11:51;;;;;;;9.40;7.07;;;;;;;27.46;39.51;101092.59;5034744;28;20493;-92
2022/06/24 08:14:16;;;;;;;13.43;8.88;;;;;;;27.64;38.41;101103.78;5035805;28;20035;-92
2022/06/24 08:16:42;;;;;;;9.95;7.55;;;;;;;27.64;37.88;101101.13;5039186;28;20036;-91
2022/06/24 08:19:08;;;;;;;8.77;7.43;;;;;;;27.64;38.32;101101.13;5067072;28;20113;-93
2022/06/24 08:21:33;;;;;;;13.02;7.25;;;;;;;27.87;39.09;101103.00;5021284;28;20025;-89
2022/06/24 08:23:59;;;;;;;9.75;7.15;;;;;;;28.04;38.27;101109.03;5052785;28;20095;-89
2022/06/24 08:26:25;;;;;;;9.10;6.85;;;;;;;27.99;37.08;101104.25;5035673;28;20110;-90
2022/06/24 08:28:50;;;;;;;10.05;7.38;;;;;;;28.09;37.13;101104.00;5038073;28;20029;-91
2022/06/24 08:31:16;;;;;;;10.68;7.47;;;;;;;28.12;38.72;101101.84;5053388;28;20047;-91
2022/06/24 08:33:41;;;;;;;9.25;7.30;;;;;;;28.32;36.11;101104.00;5030757;28;20021;-86
2022/06/24 08:36:07;;;;;;;12.07;8.90;;;;;;;28.41;36.95;101084.31;5016870;28;20037;-88
2022/06/24 08:38:32;;;;;;;13.18;8.35;;;;;;;28.44;36.11;101102.59;5014317;28;20542;-86
2022/06/24 08:41:00;;;;;;;9.73;6.78;;;;;;;28.57;36.38;101103.63;5048639;28;20033;-86
2022/06/24 08:43:25;;;;;;;11.07;7.70;;;;;;;28.50;35.86;101085.88;5032361;28;20557;-89
2022/06/24 08:45:51;;;;;;;11.75;8.65;;;;;;;28.50;35.66;101083.22;5034106;28;20064;-88
2022/06/24 08:48:16;;;;;;;9.10;5.90;;;;;;;28.71;35.17;101102.00;5055793;28;20088;-91
2022/06/24 08:50:42;;;;;;;7.68;6.10;;;;;;;28.80;35.52;101081.44;5044207;28;20029;-87
2022/06/24 08:53:09;;;;;;;16.60;14.20;;;;;;;28.99;32.95;101094.22;5033278;28;20028;-90
2022/06/24 08:55:38;;;;;;;8.75;6.75;;;;;;;28.98;34.36;101089.09;5029648;28;20021;-86
2022/06/24 08:58:11;;;;;;;7.38;6.32;;;;;;;28.84;34.53;101072.06;5045326;28;20060;-86
2022/06/24 09:00:36;;;;;;;11.43;9.48;;;;;;;29.11;34.73;101095.44;5033546;28;20141;-87
2022/06/24 09:03:06;;;;;;;12.15;7.03;;;;;;;29.08;34.69;101093.13;5033230;28;20104;-86
2022/06/24 09:05:31;;;;;;;11.48;6.20;;;;;;;29.28;35.10;101109.38;5034637;28;20047;-86
2022/06/24 09:08:04;;;;;;;8.68;6.68;;;;;;;29.23;33.99;101103.78;5048329;28;20281;-85
2022/06/24 09:10:30;;;;;;;7.75;6.00;;;;;;;29.36;32.81;101090.59;5032336;28;20021;-91
2022/06/24 09:12:55;;;;;;;6.95;5.93;;;;;;;29.67;33.69;101089.56;5035120;28;20030;-90
2022/06/24 09:15:21;;;;;;;12.73;6.18;;;;;;;29.69;32.60;101076.84;5020702;28;20040;-92
2022/06/24 09:17:46;;;;;;;9.48;7.05;;;;;;;29.79;32.37;101066.69;5030729;28;20036;-93
2022/06/24 09:20:12;;;;;;;8.77;6.93;;;;;;;29.98;31.84;101067.91;5031491;28;20038;-90
2022/06/24 09:22:38;;;;;;;10.55;6.65;;;;;;;29.96;31.28;101061.94;5032643;28;20036;-87
2022/06/24 09:25:04;;;;;;;6.13;5.43;;;;;;;30.01;30.19;101059.53;5046795;28;20032;-90
2022/06/24 09:27:30;;;;;;;7.70;5.40;;;;;;;30.12;30.95;101067.06;5046183;28;20029;-91
2022/06/24 09:29:55;;;;;;;9.60;5.15;;;;;;;30.18;29.74;101065.44;5043806;28;20202;-82
2022/06/24 09:32:21;;;;;;;8.02;4.80;;;;;;;30.19;29.15;101051.13;5035175;28;20075;-91
2022/06/24 09:35:05;;;;;;;6.60;4.72;;;;;;;30.02;28.47;101060.38;5049937;28;20021;-91
2022/06/24 09:37:37;;;;;;;5.50;4.78;;;;;;;30.10;30.24;101054.94;5051831;28;20068;-92
2022/06/24 09:40:30;;;;;;;9.77;5.50;;;;;;;30.36;29.93;101063.13;5050612;28;20027;-87
2022/06/24 09:42:57;;;;;;;7.93;6.30;;;;;;;30.35;28.43;101060.66;5037743;28;20120;-92
2022/06/24 09:45:24;;;;;;;17.33;15.50;;;;;;;30.35;28.67;101056.16;5048600;28;20055;-93
2022/06/24 09:47:50;;;;;;;6.22;4.30;;;;;;;30.38;26.92;101049.59;5045331;28;20025;-86
2022/06/24 09:50:16;;;;;;;6.97;4.85;;;;;;;30.70;27.46;101042.88;5046787;28;20095;-91
2022/06/24 09:52:43;;;;;;;7.68;5.18;;;;;;;30.82;28.33;101042.09;5016900;28;20499;-89
2022/06/24 09:55:12;;;;;;;6.28;4.50;;;;;;;30.95;26.93;101045.84;5028989;28;20027;-86
2022/06/24 09:57:40;;;;;;;4.78;4.28;;;;;;;31.02;26.98;101050.22;5037359;28;20029;-91
2022/06/24 10:02:51;;;;;;;8.07;4.95;;;;;;;31.00;26.73;101043.44;5035402;28;20556;-90
2022/06/24 10:05:18;;;;;;;11.63;5.78;;;;;;;30.90;27.48;101042.97;5016382;28;20037;-91
2022/06/24 10:07:45;;;;;;;6.38;4.78;;;;;;;31.04;27.70;101048.16;5037230;28;20044;-93
2022/06/24 10:10:11;;;;;;;38.05;32.05;;;;;;;31.12;26.44;101037.31;5034467;28;20052;-86
2022/06/24 10:12:44;;;;;;;6.45;5.47;;;;;;;31.41;26.13;101040.72;5032839;28;20475;-84
2022/06/24 10:15:10;;;;;;;6.72;4.30;;;;;;;31.47;25.50;101029.22;5033317;28;20021;-84
2022/06/24 10:17:35;;;;;;;16.90;13.43;;;;;;;31.61;27.34;101028.22;5049081;28;20031;-84
2022/06/24 10:20:01;;;;;;;5.47;4.85;;;;;;;31.44;26.59;101012.75;5032727;28;20033;-84
2022/06/24 10:22:46;;;;;;;7.60;5.03;;;;;;;31.47;25.86;101042.59;5031622;28;20041;-84
2022/06/24 10:25:21;;;;;;;7.50;5.03;;;;;;;31.44;26.64;101040.31;5050201;28;20479;-83
2022/06/24 10:27:58;;;;;;;10.82;5.60;;;;;;;31.74;26.71;101039.94;5049284;28;20029;-83
2022/06/24 10:30:39;;;;;;;5.90;4.50;;;;;;;31.90;26.57;101026.22;5049721;28;20053;-83
2022/06/24 10:33:19;;;;;;;6.68;4.82;;;;;;;32.02;27.16;101034.44;5049363;28;20056;-82
2022/06/24 10:36:02;;;;;;;10.73;4.90;;;;;;;32.14;25.30;101035.47;5032445;28;20021;-83
2022/06/24 10:38:41;;;;;;;8.10;4.30;;;;;;;32.25;25.17;101033.00;5032726;28;20033;-83
2022/06/24 10:41:09;;;;;;;6.55;4.40;;;;;;;32.42;25.71;101038.78;5026220;28;20036;-93
2022/06/24 10:43:38;;;;;;;5.60;4.60;;;;;;;32.40;26.18;101037.34;5032587;28;20032;-90
2022/06/24 10:46:13;;;;;;;14.70;12.95;;;;;;;32.58;24.94;101037.50;5031523;28;20037;-84
2022/06/24 10:48:44;;;;;;;8.20;5.43;;;;;;;32.51;24.37;101036.69;5048847;28;20516;-85
2022/06/24 10:51:16;;;;;;;7.15;4.55;;;;;;;32.28;25.06;101028.28;5049909;28;20025;-84
2022/06/24 10:54:09;;;;;;;7.28;4.90;;;;;;;32.53;25.49;101040.81;5049100;28;20120;-84
2022/06/24 10:56:41;;;;;;;5.25;4.50;;;;;;;32.61;24.51;101020.19;5050013;28;20364;-83
2022/06/24 10:59:06;;;;;;;6.47;4.38;;;;;;;32.61;24.63;101031.72;5051236;28;20032;-93
2022/06/24 11:01:32;;;;;;;7.00;4.55;;;;;;;32.58;24.51;101025.97;5010119;28;20049;-84
2022/06/24 11:04:04;;;;;;;6.43;4.70;;;;;;;32.79;24.63;101034.56;5049075;28;20033;-88
2022/06/24 11:06:30;;;;;;;7.82;4.35;;;;;;;32.88;23.93;101037.88;5033340;28;20110;-90
2022/06/24 11:09:03;;;;;;;6.93;4.40;;;;;;;33.00;25.75;101024.63;5032109;28;20080;-92
2022/06/24 11:11:29;;;;;;;5.13;4.63;;;;;;;33.01;24.60;101016.38;5021321;28;20481;-84
2022/06/24 11:13:55;;;;;;;6.40;4.60;;;;;;;33.17;25.30;101022.28;5036536;28;20029;-91
2022/06/24 11:16:20;;;;;;;6.45;4.40;;;;;;;33.14;23.88;100999.41;5036358;28;20049;-91
2022/06/24 11:18:49;;;;;;;6.93;4.40;;;;;;;33.33;24.25;100998.47;5054086;28;20040;-86
2022/06/24 11:21:17;;;;;;;8.30;5.00;;;;;;;33.21;24.08;101016.25;5050959;28;20029;-89